sensor_id;sensor_type;location;lat;lon;timestamp;P1;durP1;ratioP1;P2;durP2;ratioP2
5507;SDS011;2776;51.046;6.772;2023-05-10T00:01:51;13.20;;;11.17;;
5507;SDS011;2776;51.046;6.772;2023-05-10T00:04:18;12.40;;;11.10;;
5507;SDS011;2776;51.046;6.772;2023-05-10T00:06:44;14.13;;;12.20;;
5507;SDS011;2776;51.046;6.772;2023-05-10T00:09:11;12.70;;;11.37;;
5507;SDS011;2776;51.046;6.772;2023-05-10T00:11:38;13.90;;;12.10;;
5507;SDS011;2776;51.046;6.772;2023-05-10T00:14:05;15.17;;;12.40;;
5507;SDS011;2776;51.046;6.772;2023-05-10T00:16:31;13.80;;;12.40;;
5507;SDS011;2776;51.046;6.772;2023-05-10T00:18:59;14.53;;;12.53;;
5507;SDS011;2776;51.046;6.772;2023-05-10T00:21:26;14.33;;;11.97;;
5507;SDS011;2776;51.046;6.772;2023-05-10T00:23:53;14.60;;;12.87;;
5507;SDS011;2776;51.046;6.772;2023-05-10T00:26:20;15.43;;;13.10;;
5507;SDS011;2776;51.046;6.772;2023-05-10T00:28:46;16.27;;;12.57;;
5507;SDS011;2776;51.046;6.772;2023-05-10T00:31:13;15.90;;;12.50;;
5507;SDS011;2776;51.046;6.772;2023-05-10T00:33:40;13.87;;;12.20;;
5507;SDS011;2776;51.046;6.772;2023-05-10T00:36:08;14.47;;;12.43;;
5507;SDS011;2776;51.046;6.772;2023-05-10T00:38:35;14.23;;;12.10;;
5507;SDS011;2776;51.046;6.772;2023-05-10T00:41:02;13.77;;;12.37;;
5507;SDS011;2776;51.046;6.772;2023-05-10T00:43:29;14.73;;;12.60;;
5507;SDS011;2776;51.046;6.772;2023-05-10T00:45:55;13.67;;;11.90;;
5507;SDS011;2776;51.046;6.772;2023-05-10T00:48:22;13.83;;;12.43;;
5507;SDS011;2776;51.046;6.772;2023-05-10T00:50:50;14.97;;;12.90;;
5507;SDS011;2776;51.046;6.772;2023-05-10T00:53:18;13.80;;;12.17;;
5507;SDS011;2776;51.046;6.772;2023-05-10T00:55:45;14.93;;;12.07;;
5507;SDS011;2776;51.046;6.772;2023-05-10T00:58:12;14.23;;;11.77;;
5507;SDS011;2776;51.046;6.772;2023-05-10T01:00:39;11.83;;;10.37;;
5507;SDS011;2776;51.046;6.772;2023-05-10T01:03:08;14.53;;;11.57;;
5507;SDS011;2776;51.046;6.772;2023-05-10T01:05:35;14.20;;;11.80;;
5507;SDS011;2776;51.046;6.772;2023-05-10T01:08:02;12.90;;;11.23;;
5507;SDS011;2776;51.046;6.772;2023-05-10T01:10:30;14.93;;;10.70;;
5507;SDS011;2776;51.046;6.772;2023-05-10T01:12:57;15.97;;;11.30;;
5507;SDS011;2776;51.046;6.772;2023-05-10T01:15:25;15.07;;;10.83;;
5507;SDS011;2776;51.046;6.772;2023-05-10T01:17:52;19.40;;;12.17;;
5507;SDS011;2776;51.046;6.772;2023-05-10T01:20:20;16.10;;;11.63;;
5507;SDS011;2776;51.046;6.772;2023-05-10T01:22:52;16.40;;;11.33;;
5507;SDS011;2776;51.046;6.772;2023-05-10T01:25:52;16.13;;;10.40;;
5507;SDS011;2776;51.046;6.772;2023-05-10T01:28:58;18.97;;;11.63;;
5507;SDS011;2776;51.046;6.772;2023-05-10T01:31:52;18.87;;;11.27;;
5507;SDS011;2776;51.046;6.772;2023-05-10T01:34:31;15.83;;;10.93;;
5507;SDS011;2776;51.046;6.772;2023-05-10T01:37:07;11.67;;;9.17;;
5507;SDS011;2776;51.046;6.772;2023-05-10T01:39:43;13.80;;;9.73;;
5507;SDS011;2776;51.046;6.772;2023-05-10T01:42:14;12.80;;;9.27;;
5507;SDS011;2776;51.046;6.772;2023-05-10T01:44:45;14.40;;;9.50;;
5507;SDS011;2776;51.046;6.772;2023-05-10T01:47:17;12.10;;;9.13;;
5507;SDS011;2776;51.046;6.772;2023-05-10T01:49:49;10.43;;;8.70;;
5507;SDS011;2776;51.046;6.772;2023-05-10T01:52:18;9.13;;;8.23;;
5507;SDS011;2776;51.046;6.772;2023-05-10T01:54:53;9.03;;;8.07;;
5507;SDS011;2776;51.046;6.772;2023-05-10T01:57:24;9.73;;;8.30;;
5507;SDS011;2776;51.046;6.772;2023-05-10T01:59:53;11.10;;;8.13;;
5507;SDS011;2776;51.046;6.772;2023-05-10T02:02:24;10.30;;;7.77;;
5507;SDS011;2776;51.046;6.772;2023-05-10T02:04:51;8.40;;;7.43;;
5507;SDS011;2776;51.046;6.772;2023-05-10T02:07:20;9.57;;;7.27;;
5507;SDS011;2776;51.046;6.772;2023-05-10T02:09:49;9.77;;;7.80;;
5507;SDS011;2776;51.046;6.772;2023-05-10T02:12:16;8.37;;;6.57;;
5507;SDS011;2776;51.046;6.772;2023-05-10T02:14:45;8.97;;;6.30;;
5507;SDS011;2776;51.046;6.772;2023-05-10T02:17:13;6.80;;;4.90;;
5507;SDS011;2776;51.046;6.772;2023-05-10T02:19:42;5.10;;;4.60;;
5507;SDS011;2776;51.046;6.772;2023-05-10T02:22:10;5.50;;;4.50;;
5507;SDS011;2776;51.046;6.772;2023-05-10T02:24:38;6.73;;;4.50;;
5507;SDS011;2776;51.046;6.772;2023-05-10T02:27:06;6.97;;;4.53;;
5507;SDS011;2776;51.046;6.772;2023-05-10T02:29:35;4.97;;;4.33;;
5507;SDS011;2776;51.046;6.772;2023-05-10T02:32:03;6.27;;;4.50;;
5507;SDS011;2776;51.046;6.772;2023-05-10T02:34:30;5.40;;;4.53;;
5507;SDS011;2776;51.046;6.772;2023-05-10T02:36:59;5.27;;;4.43;;
5507;SDS011;2776;51.046;6.772;2023-05-10T02:39:28;7.23;;;4.83;;
5507;SDS011;2776;51.046;6.772;2023-05-10T02:41:57;6.57;;;4.80;;
5507;SDS011;2776;51.046;6.772;2023-05-10T02:44:24;5.70;;;5.20;;
5507;SDS011;2776;51.046;6.772;2023-05-10T02:46:53;6.37;;;4.97;;
5507;SDS011;2776;51.046;6.772;2023-05-10T02:49:20;7.70;;;5.23;;
5507;SDS011;2776;51.046;6.772;2023-05-10T02:51:49;5.27;;;4.77;;
5507;SDS011;2776;51.046;6.772;2023-05-10T02:54:24;6.33;;;5.73;;
5507;SDS011;2776;51.046;6.772;2023-05-10T02:56:56;6.10;;;5.50;;
5507;SDS011;2776;51.046;6.772;2023-05-10T02:59:24;10.30;;;5.90;;
5507;SDS011;2776;51.046;6.772;2023-05-10T03:01:51;7.27;;;6.00;;
5507;SDS011;2776;51.046;6.772;2023-05-10T03:04:17;11.63;;;6.37;;
5507;SDS011;2776;51.046;6.772;2023-05-10T03:06:44;8.30;;;6.70;;
5507;SDS011;2776;51.046;6.772;2023-05-10T03:09:11;10.47;;;7.07;;
5507;SDS011;2776;51.046;6.772;2023-05-10T03:11:46;9.77;;;7.57;;
5507;SDS011;2776;51.046;6.772;2023-05-10T03:14:21;13.20;;;7.80;;
5507;SDS011;2776;51.046;6.772;2023-05-10T03:17:00;8.57;;;7.63;;
5507;SDS011;2776;51.046;6.772;2023-05-10T03:19:35;12.27;;;7.87;;
5507;SDS011;2776;51.046;6.772;2023-05-10T03:22:10;9.13;;;8.23;;
5507;SDS011;2776;51.046;6.772;2023-05-10T03:24:39;9.93;;;8.07;;
5507;SDS011;2776;51.046;6.772;2023-05-10T03:27:08;10.37;;;8.30;;
5507;SDS011;2776;51.046;6.772;2023-05-10T03:29:36;10.60;;;8.87;;
5507;SDS011;2776;51.046;6.772;2023-05-10T03:32:05;15.53;;;8.33;;
5507;SDS011;2776;51.046;6.772;2023-05-10T03:34:31;10.30;;;8.70;;
5507;SDS011;2776;51.046;6.772;2023-05-10T03:36:58;13.20;;;9.97;;
5507;SDS011;2776;51.046;6.772;2023-05-10T03:39:25;12.83;;;9.80;;
5507;SDS011;2776;51.046;6.772;2023-05-10T03:41:51;13.37;;;10.23;;
5507;SDS011;2776;51.046;6.772;2023-05-10T03:44:19;18.50;;;11.77;;
5507;SDS011;2776;51.046;6.772;2023-05-10T03:46:46;15.23;;;11.60;;
5507;SDS011;2776;51.046;6.772;2023-05-10T03:49:13;17.43;;;12.07;;
5507;SDS011;2776;51.046;6.772;2023-05-10T03:51:40;17.30;;;13.23;;
5507;SDS011;2776;51.046;6.772;2023-05-10T03:54:07;22.47;;;14.67;;
5507;SDS011;2776;51.046;6.772;2023-05-10T03:56:33;22.13;;;16.57;;
5507;SDS011;2776;51.046;6.772;2023-05-10T03:59:00;24.33;;;18.23;;
5507;SDS011;2776;51.046;6.772;2023-05-10T04:01:33;23.93;;;17.87;;
5507;SDS011;2776;51.046;6.772;2023-05-10T04:04:00;23.60;;;18.50;;
5507;SDS011;2776;51.046;6.772;2023-05-10T04:06:26;24.10;;;18.43;;
5507;SDS011;2776;51.046;6.772;2023-05-10T04:08:53;23.23;;;17.93;;
5507;SDS011;2776;51.046;6.772;2023-05-10T04:11:20;23.57;;;18.07;;
5507;SDS011;2776;51.046;6.772;2023-05-10T04:13:47;25.30;;;17.17;;
5507;SDS011;2776;51.046;6.772;2023-05-10T04:16:14;23.27;;;16.83;;
5507;SDS011;2776;51.046;6.772;2023-05-10T04:18:42;20.47;;;16.57;;
5507;SDS011;2776;51.046;6.772;2023-05-10T04:21:11;19.17;;;15.33;;
5507;SDS011;2776;51.046;6.772;2023-05-10T04:23:38;19.13;;;14.60;;
5507;SDS011;2776;51.046;6.772;2023-05-10T04:26:05;19.47;;;15.13;;
5507;SDS011;2776;51.046;6.772;2023-05-10T04:28:32;23.63;;;15.67;;
5507;SDS011;2776;51.046;6.772;2023-05-10T04:31:02;19.70;;;15.17;;
5507;SDS011;2776;51.046;6.772;2023-05-10T04:33:29;17.57;;;15.07;;
5507;SDS011;2776;51.046;6.772;2023-05-10T04:35:57;16.83;;;14.20;;
5507;SDS011;2776;51.046;6.772;2023-05-10T04:38:24;19.07;;;15.33;;
5507;SDS011;2776;51.046;6.772;2023-05-10T04:40:50;21.60;;;14.37;;
5507;SDS011;2776;51.046;6.772;2023-05-10T04:43:17;17.40;;;14.33;;
5507;SDS011;2776;51.046;6.772;2023-05-10T04:45:44;24.37;;;14.47;;
5507;SDS011;2776;51.046;6.772;2023-05-10T04:48:11;20.10;;;14.67;;
5507;SDS011;2776;51.046;6.772;2023-05-10T04:50:38;17.83;;;13.37;;
5507;SDS011;2776;51.046;6.772;2023-05-10T04:53:07;19.03;;;14.27;;
5507;SDS011;2776;51.046;6.772;2023-05-10T04:55:33;21.53;;;13.33;;
5507;SDS011;2776;51.046;6.772;2023-05-10T04:58:00;16.57;;;13.57;;
5507;SDS011;2776;51.046;6.772;2023-05-10T05:00:27;17.87;;;14.27;;
5507;SDS011;2776;51.046;6.772;2023-05-10T05:02:54;16.67;;;13.00;;
5507;SDS011;2776;51.046;6.772;2023-05-10T05:05:21;16.67;;;12.77;;
5507;SDS011;2776;51.046;6.772;2023-05-10T05:07:47;19.83;;;13.30;;
5507;SDS011;2776;51.046;6.772;2023-05-10T05:10:16;18.83;;;13.10;;
5507;SDS011;2776;51.046;6.772;2023-05-10T05:12:42;17.30;;;13.07;;
5507;SDS011;2776;51.046;6.772;2023-05-10T05:15:09;19.50;;;12.80;;
5507;SDS011;2776;51.046;6.772;2023-05-10T05:17:36;15.07;;;12.47;;
5507;SDS011;2776;51.046;6.772;2023-05-10T05:20:04;17.37;;;12.17;;
5507;SDS011;2776;51.046;6.772;2023-05-10T05:22:31;15.03;;;12.00;;
5507;SDS011;2776;51.046;6.772;2023-05-10T05:24:58;19.17;;;13.23;;
5507;SDS011;2776;51.046;6.772;2023-05-10T05:27:26;19.97;;;12.70;;
5507;SDS011;2776;51.046;6.772;2023-05-10T05:29:53;19.63;;;13.57;;
5507;SDS011;2776;51.046;6.772;2023-05-10T05:32:20;22.10;;;14.17;;
5507;SDS011;2776;51.046;6.772;2023-05-10T05:34:48;19.67;;;13.47;;
5507;SDS011;2776;51.046;6.772;2023-05-10T05:37:14;21.17;;;14.27;;
5507;SDS011;2776;51.046;6.772;2023-05-10T05:39:41;22.70;;;14.07;;
5507;SDS011;2776;51.046;6.772;2023-05-10T05:42:08;22.83;;;14.60;;
5507;SDS011;2776;51.046;6.772;2023-05-10T05:44:37;21.70;;;13.90;;
5507;SDS011;2776;51.046;6.772;2023-05-10T05:47:04;20.70;;;13.63;;
5507;SDS011;2776;51.046;6.772;2023-05-10T05:49:31;20.47;;;13.03;;
5507;SDS011;2776;51.046;6.772;2023-05-10T05:51:58;21.10;;;14.10;;
5507;SDS011;2776;51.046;6.772;2023-05-10T05:54:26;23.17;;;13.43;;
5507;SDS011;2776;51.046;6.772;2023-05-10T05:56:53;25.03;;;14.10;;
5507;SDS011;2776;51.046;6.772;2023-05-10T05:59:21;17.83;;;13.10;;
5507;SDS011;2776;51.046;6.772;2023-05-10T06:01:49;20.17;;;14.20;;
5507;SDS011;2776;51.046;6.772;2023-05-10T06:04:16;22.33;;;15.30;;
5507;SDS011;2776;51.046;6.772;2023-05-10T06:06:43;19.73;;;14.50;;
5507;SDS011;2776;51.046;6.772;2023-05-10T06:09:10;20.40;;;13.33;;
5507;SDS011;2776;51.046;6.772;2023-05-10T06:11:37;23.17;;;14.77;;
5507;SDS011;2776;51.046;6.772;2023-05-10T06:14:04;21.00;;;13.53;;
5507;SDS011;2776;51.046;6.772;2023-05-10T06:16:32;23.30;;;14.07;;
5507;SDS011;2776;51.046;6.772;2023-05-10T06:19:00;22.33;;;15.03;;
5507;SDS011;2776;51.046;6.772;2023-05-10T06:21:27;20.73;;;14.60;;
5507;SDS011;2776;51.046;6.772;2023-05-10T06:23:53;19.47;;;13.93;;
5507;SDS011;2776;51.046;6.772;2023-05-10T06:26:20;21.37;;;14.87;;
5507;SDS011;2776;51.046;6.772;2023-05-10T06:28:47;21.97;;;15.13;;
5507;SDS011;2776;51.046;6.772;2023-05-10T06:31:13;25.97;;;15.97;;
5507;SDS011;2776;51.046;6.772;2023-05-10T06:33:41;22.13;;;15.40;;
5507;SDS011;2776;51.046;6.772;2023-05-10T06:36:09;23.13;;;15.43;;
5507;SDS011;2776;51.046;6.772;2023-05-10T06:38:36;24.27;;;16.70;;
5507;SDS011;2776;51.046;6.772;2023-05-10T06:41:02;29.00;;;16.40;;
5507;SDS011;2776;51.046;6.772;2023-05-10T06:43:29;22.77;;;15.67;;
5507;SDS011;2776;51.046;6.772;2023-05-10T06:45:56;24.13;;;16.33;;
5507;SDS011;2776;51.046;6.772;2023-05-10T06:48:22;25.47;;;16.87;;
5507;SDS011;2776;51.046;6.772;2023-05-10T06:50:49;27.80;;;17.37;;
5507;SDS011;2776;51.046;6.772;2023-05-10T06:53:17;24.73;;;16.63;;
5507;SDS011;2776;51.046;6.772;2023-05-10T06:55:44;21.27;;;16.30;;
5507;SDS011;2776;51.046;6.772;2023-05-10T06:58:11;25.83;;;15.87;;
5507;SDS011;2776;51.046;6.772;2023-05-10T07:00:38;19.80;;;15.57;;
5507;SDS011;2776;51.046;6.772;2023-05-10T07:03:05;20.67;;;15.13;;
5507;SDS011;2776;51.046;6.772;2023-05-10T07:05:32;20.20;;;14.00;;
5507;SDS011;2776;51.046;6.772;2023-05-10T07:07:59;18.27;;;14.70;;
5507;SDS011;2776;51.046;6.772;2023-05-10T07:10:27;20.00;;;13.87;;
5507;SDS011;2776;51.046;6.772;2023-05-10T07:12:54;20.23;;;14.70;;
5507;SDS011;2776;51.046;6.772;2023-05-10T07:15:21;21.47;;;16.13;;
5507;SDS011;2776;51.046;6.772;2023-05-10T07:17:48;17.47;;;14.20;;
5507;SDS011;2776;51.046;6.772;2023-05-10T07:20:16;19.33;;;13.70;;
5507;SDS011;2776;51.046;6.772;2023-05-10T07:22:43;19.07;;;13.50;;
5507;SDS011;2776;51.046;6.772;2023-05-10T07:25:10;17.43;;;13.43;;
5507;SDS011;2776;51.046;6.772;2023-05-10T07:27:38;18.60;;;13.60;;
5507;SDS011;2776;51.046;6.772;2023-05-10T07:30:05;20.60;;;14.03;;
5507;SDS011;2776;51.046;6.772;2023-05-10T07:32:33;22.47;;;14.63;;
5507;SDS011;2776;51.046;6.772;2023-05-10T07:34:59;18.50;;;12.20;;
5507;SDS011;2776;51.046;6.772;2023-05-10T07:37:26;17.87;;;12.70;;
5507;SDS011;2776;51.046;6.772;2023-05-10T07:39:53;20.50;;;13.20;;
5507;SDS011;2776;51.046;6.772;2023-05-10T07:42:19;20.63;;;12.90;;
5507;SDS011;2776;51.046;6.772;2023-05-10T07:44:47;17.03;;;12.97;;
5507;SDS011;2776;51.046;6.772;2023-05-10T07:47:14;19.87;;;12.67;;
5507;SDS011;2776;51.046;6.772;2023-05-10T07:49:41;17.50;;;13.53;;
5507;SDS011;2776;51.046;6.772;2023-05-10T07:52:08;18.40;;;13.40;;
5507;SDS011;2776;51.046;6.772;2023-05-10T07:54:36;16.90;;;13.83;;
5507;SDS011;2776;51.046;6.772;2023-05-10T07:57:03;19.63;;;12.93;;
5507;SDS011;2776;51.046;6.772;2023-05-10T07:59:29;19.00;;;13.77;;
5507;SDS011;2776;51.046;6.772;2023-05-10T08:01:58;18.47;;;12.57;;
5507;SDS011;2776;51.046;6.772;2023-05-10T08:04:25;17.63;;;11.93;;
5507;SDS011;2776;51.046;6.772;2023-05-10T08:06:52;19.27;;;13.03;;
5507;SDS011;2776;51.046;6.772;2023-05-10T08:09:19;17.87;;;13.13;;
5507;SDS011;2776;51.046;6.772;2023-05-10T08:11:48;20.53;;;13.83;;
5507;SDS011;2776;51.046;6.772;2023-05-10T08:14:15;18.90;;;14.00;;
5507;SDS011;2776;51.046;6.772;2023-05-10T08:16:42;25.30;;;15.80;;
5507;SDS011;2776;51.046;6.772;2023-05-10T08:19:10;21.17;;;14.13;;
5507;SDS011;2776;51.046;6.772;2023-05-10T08:21:36;19.07;;;15.20;;
5507;SDS011;2776;51.046;6.772;2023-05-10T08:24:05;22.83;;;15.40;;
5507;SDS011;2776;51.046;6.772;2023-05-10T08:26:32;20.80;;;15.83;;
5507;SDS011;2776;51.046;6.772;2023-05-10T08:28:59;20.43;;;14.67;;
5507;SDS011;2776;51.046;6.772;2023-05-10T08:31:26;20.17;;;14.80;;
5507;SDS011;2776;51.046;6.772;2023-05-10T08:33:52;23.50;;;17.67;;
5507;SDS011;2776;51.046;6.772;2023-05-10T08:36:20;22.00;;;15.83;;
5507;SDS011;2776;51.046;6.772;2023-05-10T08:38:49;22.53;;;16.23;;
5507;SDS011;2776;51.046;6.772;2023-05-10T08:41:17;23.23;;;15.63;;
5507;SDS011;2776;51.046;6.772;2023-05-10T08:43:46;25.40;;;17.10;;
5507;SDS011;2776;51.046;6.772;2023-05-10T08:46:13;28.67;;;18.57;;
5507;SDS011;2776;51.046;6.772;2023-05-10T08:48:42;28.93;;;18.90;;
5507;SDS011;2776;51.046;6.772;2023-05-10T08:51:11;33.87;;;18.57;;
5507;SDS011;2776;51.046;6.772;2023-05-10T08:53:42;30.63;;;19.23;;
5507;SDS011;2776;51.046;6.772;2023-05-10T08:56:10;32.23;;;19.50;;
5507;SDS011;2776;51.046;6.772;2023-05-10T08:58:37;29.23;;;19.63;;
5507;SDS011;2776;51.046;6.772;2023-05-10T09:01:04;34.53;;;19.67;;
5507;SDS011;2776;51.046;6.772;2023-05-10T09:03:31;31.87;;;20.63;;
5507;SDS011;2776;51.046;6.772;2023-05-10T09:05:58;30.57;;;20.30;;
5507;SDS011;2776;51.046;6.772;2023-05-10T09:08:25;35.83;;;20.27;;
5507;SDS011;2776;51.046;6.772;2023-05-10T09:10:54;32.13;;;20.53;;
5507;SDS011;2776;51.046;6.772;2023-05-10T09:13:22;30.40;;;19.83;;
5507;SDS011;2776;51.046;6.772;2023-05-10T09:15:49;31.47;;;20.33;;
5507;SDS011;2776;51.046;6.772;2023-05-10T09:18:18;31.30;;;20.37;;
5507;SDS011;2776;51.046;6.772;2023-05-10T09:20:45;28.00;;;19.80;;
5507;SDS011;2776;51.046;6.772;2023-05-10T09:23:12;30.50;;;19.33;;
5507;SDS011;2776;51.046;6.772;2023-05-10T09:25:38;31.23;;;20.87;;
5507;SDS011;2776;51.046;6.772;2023-05-10T09:28:08;30.90;;;20.07;;
5507;SDS011;2776;51.046;6.772;2023-05-10T09:30:35;29.77;;;19.53;;
5507;SDS011;2776;51.046;6.772;2023-05-10T09:33:02;28.70;;;18.77;;
5507;SDS011;2776;51.046;6.772;2023-05-10T09:35:30;26.37;;;18.33;;
5507;SDS011;2776;51.046;6.772;2023-05-10T09:37:59;25.27;;;16.77;;
5507;SDS011;2776;51.046;6.772;2023-05-10T09:40:28;25.30;;;17.27;;
5507;SDS011;2776;51.046;6.772;2023-05-10T09:42:56;22.17;;;16.30;;
5507;SDS011;2776;51.046;6.772;2023-05-10T09:45:25;21.27;;;15.20;;
5507;SDS011;2776;51.046;6.772;2023-05-10T09:47:53;22.53;;;16.37;;
5507;SDS011;2776;51.046;6.772;2023-05-10T09:50:20;23.73;;;17.17;;
5507;SDS011;2776;51.046;6.772;2023-05-10T09:52:48;21.57;;;15.90;;
5507;SDS011;2776;51.046;6.772;2023-05-10T09:55:18;23.33;;;15.57;;
5507;SDS011;2776;51.046;6.772;2023-05-10T09:57:46;22.57;;;15.43;;
5507;SDS011;2776;51.046;6.772;2023-05-10T10:00:17;23.03;;;16.30;;
5507;SDS011;2776;51.046;6.772;2023-05-10T10:02:46;21.13;;;16.17;;
5507;SDS011;2776;51.046;6.772;2023-05-10T10:05:20;20.37;;;16.07;;
5507;SDS011;2776;51.046;6.772;2023-05-10T10:07:46;18.13;;;13.95;;
5507;SDS011;2776;51.046;6.772;2023-05-10T10:10:15;17.88;;;14.05;;
5507;SDS011;2776;51.046;6.772;2023-05-10T10:12:42;17.90;;;14.48;;
5507;SDS011;2776;51.046;6.772;2023-05-10T10:15:09;19.58;;;14.50;;
5507;SDS011;2776;51.046;6.772;2023-05-10T10:17:36;20.58;;;14.05;;
5507;SDS011;2776;51.046;6.772;2023-05-10T10:20:07;19.02;;;14.35;;
5507;SDS011;2776;51.046;6.772;2023-05-10T10:22:34;19.15;;;14.75;;
5507;SDS011;2776;51.046;6.772;2023-05-10T10:25:02;17.63;;;14.53;;
5507;SDS011;2776;51.046;6.772;2023-05-10T10:27:34;18.63;;;14.27;;
5507;SDS011;2776;51.046;6.772;2023-05-10T10:30:11;17.30;;;13.50;;
5507;SDS011;2776;51.046;6.772;2023-05-10T10:32:49;16.55;;;13.55;;
5507;SDS011;2776;51.046;6.772;2023-05-10T10:35:37;14.93;;;12.23;;
5507;SDS011;2776;51.046;6.772;2023-05-10T10:38:07;17.40;;;11.98;;
5507;SDS011;2776;51.046;6.772;2023-05-10T10:40:34;15.40;;;12.50;;
5507;SDS011;2776;51.046;6.772;2023-05-10T10:46:10;15.90;;;12.00;;
5507;SDS011;2776;51.046;6.772;2023-05-10T10:48:39;15.88;;;11.85;;
5507;SDS011;2776;51.046;6.772;2023-05-10T10:51:07;17.88;;;11.82;;
5507;SDS011;2776;51.046;6.772;2023-05-10T10:53:34;12.55;;;10.18;;
5507;SDS011;2776;51.046;6.772;2023-05-10T10:56:07;15.10;;;10.43;;
5507;SDS011;2776;51.046;6.772;2023-05-10T10:58:35;13.75;;;10.00;;
5507;SDS011;2776;51.046;6.772;2023-05-10T11:01:10;15.15;;;10.30;;
5507;SDS011;2776;51.046;6.772;2023-05-10T11:03:38;11.43;;;9.23;;
5507;SDS011;2776;51.046;6.772;2023-05-10T11:06:05;11.80;;;8.63;;
5507;SDS011;2776;51.046;6.772;2023-05-10T11:08:34;12.43;;;8.90;;
5507;SDS011;2776;51.046;6.772;2023-05-10T11:11:07;12.33;;;8.50;;
5507;SDS011;2776;51.046;6.772;2023-05-10T11:13:37;10.50;;;7.53;;
5507;SDS011;2776;51.046;6.772;2023-05-10T11:16:15;10.23;;;8.13;;
5507;SDS011;2776;51.046;6.772;2023-05-10T11:21:44;10.57;;;7.73;;
5507;SDS011;2776;51.046;6.772;2023-05-10T11:24:13;8.47;;;7.40;;
5507;SDS011;2776;51.046;6.772;2023-05-10T11:26:40;8.30;;;7.07;;
5507;SDS011;2776;51.046;6.772;2023-05-10T11:29:08;8.23;;;7.13;;
5507;SDS011;2776;51.046;6.772;2023-05-10T11:31:34;7.50;;;6.70;;
5507;SDS011;2776;51.046;6.772;2023-05-10T11:34:08;7.70;;;6.47;;
5507;SDS011;2776;51.046;6.772;2023-05-10T11:36:37;6.73;;;5.70;;
5507;SDS011;2776;51.046;6.772;2023-05-10T11:39:04;6.15;;;5.30;;
5507;SDS011;2776;51.046;6.772;2023-05-10T11:41:31;6.15;;;5.55;;
5507;SDS011;2776;51.046;6.772;2023-05-10T11:43:58;6.93;;;6.00;;
5507;SDS011;2776;51.046;6.772;2023-05-10T11:46:25;7.97;;;6.10;;
5507;SDS011;2776;51.046;6.772;2023-05-10T11:48:57;10.45;;;6.22;;
5507;SDS011;2776;51.046;6.772;2023-05-10T11:51:27;6.47;;;5.60;;
5507;SDS011;2776;51.046;6.772;2023-05-10T11:53:55;6.85;;;6.07;;
5507;SDS011;2776;51.046;6.772;2023-05-10T11:56:22;5.63;;;5.13;;
5507;SDS011;2776;51.046;6.772;2023-05-10T11:58:54;5.57;;;5.00;;
5507;SDS011;2776;51.046;6.772;2023-05-10T12:01:22;5.82;;;4.45;;
5507;SDS011;2776;51.046;6.772;2023-05-10T12:03:49;4.47;;;4.07;;
5507;SDS011;2776;51.046;6.772;2023-05-10T12:06:18;4.25;;;3.85;;
5507;SDS011;2776;51.046;6.772;2023-05-10T12:08:46;4.65;;;4.03;;
5507;SDS011;2776;51.046;6.772;2023-05-10T12:11:18;4.95;;;2.92;;
5507;SDS011;2776;51.046;6.772;2023-05-10T12:13:46;3.30;;;3.00;;
5507;SDS011;2776;51.046;6.772;2023-05-10T12:16:15;3.45;;;3.15;;
5507;SDS011;2776;51.046;6.772;2023-05-10T12:18:43;4.55;;;3.40;;
5507;SDS011;2776;51.046;6.772;2023-05-10T12:21:10;3.90;;;3.42;;
5507;SDS011;2776;51.046;6.772;2023-05-10T12:23:38;3.33;;;3.03;;
5507;SDS011;2776;51.046;6.772;2023-05-10T12:26:05;4.93;;;3.28;;
5507;SDS011;2776;51.046;6.772;2023-05-10T12:28:33;6.25;;;4.00;;
5507;SDS011;2776;51.046;6.772;2023-05-10T12:31:00;3.60;;;3.30;;
5507;SDS011;2776;51.046;6.772;2023-05-10T12:33:34;3.72;;;2.25;;
5507;SDS011;2776;51.046;6.772;2023-05-10T12:36:04;3.30;;;3.00;;
5507;SDS011;2776;51.046;6.772;2023-05-10T12:38:32;2.50;;;2.30;;
5507;SDS011;2776;51.046;6.772;2023-05-10T12:40:59;3.05;;;2.25;;
5507;SDS011;2776;51.046;6.772;2023-05-10T12:43:27;2.70;;;2.50;;
5507;SDS011;2776;51.046;6.772;2023-05-10T12:45:56;3.38;;;2.58;;
5507;SDS011;2776;51.046;6.772;2023-05-10T12:48:23;2.72;;;2.50;;
5507;SDS011;2776;51.046;6.772;2023-05-10T12:50:50;5.57;;;2.35;;
5507;SDS011;2776;51.046;6.772;2023-05-10T12:53:17;3.50;;;3.17;;
5507;SDS011;2776;51.046;6.772;2023-05-10T12:55:44;3.33;;;3.03;;
5507;SDS011;2776;51.046;6.772;2023-05-10T12:58:10;5.47;;;3.25;;
5507;SDS011;2776;51.046;6.772;2023-05-10T13:00:37;4.00;;;3.10;;
5507;SDS011;2776;51.046;6.772;2023-05-10T13:03:05;3.67;;;2.95;;
5507;SDS011;2776;51.046;6.772;2023-05-10T13:05:32;4.13;;;3.15;;
5507;SDS011;2776;51.046;6.772;2023-05-10T13:07:59;3.53;;;3.22;;
5507;SDS011;2776;51.046;6.772;2023-05-10T13:10:25;3.78;;;3.35;;
5507;SDS011;2776;51.046;6.772;2023-05-10T13:12:52;3.33;;;3.00;;
5507;SDS011;2776;51.046;6.772;2023-05-10T13:15:19;1.80;;;1.70;;
5507;SDS011;2776;51.046;6.772;2023-05-10T13:17:45;2.30;;;2.10;;
5507;SDS011;2776;51.046;6.772;2023-05-10T13:20:13;2.58;;;2.38;;
5507;SDS011;2776;51.046;6.772;2023-05-10T13:22:41;3.10;;;2.20;;
5507;SDS011;2776;51.046;6.772;2023-05-10T13:25:08;2.13;;;1.80;;
5507;SDS011;2776;51.046;6.772;2023-05-10T13:27:35;2.80;;;2.60;;
5507;SDS011;2776;51.046;6.772;2023-05-10T13:30:02;2.63;;;2.10;;
5507;SDS011;2776;51.046;6.772;2023-05-10T13:32:29;2.40;;;2.20;;
5507;SDS011;2776;51.046;6.772;2023-05-10T13:34:56;3.50;;;2.45;;
5507;SDS011;2776;51.046;6.772;2023-05-10T13:37:24;4.07;;;2.80;;
5507;SDS011;2776;51.046;6.772;2023-05-10T13:39:51;2.55;;;2.20;;
5507;SDS011;2776;51.046;6.772;2023-05-10T13:42:17;2.47;;;2.10;;
5507;SDS011;2776;51.046;6.772;2023-05-10T13:44:44;1.98;;;1.88;;
5507;SDS011;2776;51.046;6.772;2023-05-10T13:47:11;1.98;;;1.88;;
5507;SDS011;2776;51.046;6.772;2023-05-10T13:49:38;4.13;;;2.33;;
5507;SDS011;2776;51.046;6.772;2023-05-10T13:52:05;2.65;;;2.20;;
5507;SDS011;2776;51.046;6.772;2023-05-10T13:54:33;2.65;;;2.00;;
5507;SDS011;2776;51.046;6.772;2023-05-10T13:57:00;1.95;;;1.73;;
5507;SDS011;2776;51.046;6.772;2023-05-10T13:59:28;3.65;;;1.77;;
5507;SDS011;2776;51.046;6.772;2023-05-10T14:01:56;3.72;;;1.60;;
5507;SDS011;2776;51.046;6.772;2023-05-10T14:04:23;6.75;;;5.05;;
5507;SDS011;2776;51.046;6.772;2023-05-10T14:06:49;6.00;;;5.40;;
5507;SDS011;2776;51.046;6.772;2023-05-10T14:09:17;6.47;;;5.78;;
5507;SDS011;2776;51.046;6.772;2023-05-10T14:11:45;7.65;;;6.00;;
5507;SDS011;2776;51.046;6.772;2023-05-10T14:14:12;6.22;;;5.63;;
5507;SDS011;2776;51.046;6.772;2023-05-10T14:16:41;6.10;;;5.50;;
5507;SDS011;2776;51.046;6.772;2023-05-10T14:19:08;5.97;;;5.38;;
5507;SDS011;2776;51.046;6.772;2023-05-10T14:21:35;5.85;;;5.28;;
5507;SDS011;2776;51.046;6.772;2023-05-10T14:24:02;6.03;;;4.95;;
5507;SDS011;2776;51.046;6.772;2023-05-10T14:26:29;6.50;;;5.30;;
5507;SDS011;2776;51.046;6.772;2023-05-10T14:28:57;7.68;;;6.32;;
5507;SDS011;2776;51.046;6.772;2023-05-10T14:31:24;6.43;;;5.25;;
5507;SDS011;2776;51.046;6.772;2023-05-10T14:33:52;6.03;;;5.32;;
5507;SDS011;2776;51.046;6.772;2023-05-10T14:36:18;5.30;;;4.80;;
5507;SDS011;2776;51.046;6.772;2023-05-10T14:38:45;7.25;;;5.50;;
5507;SDS011;2776;51.046;6.772;2023-05-10T14:41:12;6.93;;;6.22;;
5507;SDS011;2776;51.046;6.772;2023-05-10T14:43:40;2.53;;;2.33;;
5507;SDS011;2776;51.046;6.772;2023-05-10T14:46:08;3.20;;;2.10;;
5507;SDS011;2776;51.046;6.772;2023-05-10T14:48:35;2.15;;;1.88;;
5507;SDS011;2776;51.046;6.772;2023-05-10T14:51:01;2.90;;;2.25;;
5507;SDS011;2776;51.046;6.772;2023-05-10T14:53:28;3.08;;;2.20;;
5507;SDS011;2776;51.046;6.772;2023-05-10T14:55:55;3.78;;;2.00;;
5507;SDS011;2776;51.046;6.772;2023-05-10T14:58:22;3.50;;;2.17;;
5507;SDS011;2776;51.046;6.772;2023-05-10T15:00:49;3.28;;;2.15;;
5507;SDS011;2776;51.046;6.772;2023-05-10T15:03:17;2.50;;;2.30;;
5507;SDS011;2776;51.046;6.772;2023-05-10T15:05:44;2.08;;;1.85;;
5507;SDS011;2776;51.046;6.772;2023-05-10T15:08:10;3.03;;;2.03;;
5507;SDS011;2776;51.046;6.772;2023-05-10T15:10:37;2.20;;;2.00;;